sensor_id;sensor_type;location;lat;lon;timestamp;P1;durP1;ratioP1;P2;durP2;ratioP2
18804;SDS011;9530;48.930;9.526;2023-01-28T00:01:05;6.87;;;5.23;;
18804;SDS011;9530;48.930;9.526;2023-01-28T00:03:32;7.20;;;5.40;;
18804;SDS011;9530;48.930;9.526;2023-01-28T00:06:02;8.37;;;5.63;;
18804;SDS011;9530;48.930;9.526;2023-01-28T00:08:29;9.03;;;6.00;;
18804;SDS011;9530;48.930;9.526;2023-01-28T00:10:57;7.97;;;6.03;;
18804;SDS011;9530;48.930;9.526;2023-01-28T00:13:24;7.07;;;5.03;;
18804;SDS011;9530;48.930;9.526;2023-01-28T00:15:55;9.53;;;6.10;;
18804;SDS011;9530;48.930;9.526;2023-01-28T00:18:22;6.37;;;4.77;;
18804;SDS011;9530;48.930;9.526;2023-01-28T00:20:56;7.00;;;5.50;;
18804;SDS011;9530;48.930;9.526;2023-01-28T00:23:23;8.53;;;5.67;;
18804;SDS011;9530;48.930;9.526;2023-01-28T00:25:51;7.70;;;5.50;;
18804;SDS011;9530;48.930;9.526;2023-01-28T00:28:18;9.53;;;6.47;;
18804;SDS011;9530;48.930;9.526;2023-01-28T00:30:45;10.90;;;6.80;;
18804;SDS011;9530;48.930;9.526;2023-01-28T00:33:13;11.00;;;7.00;;
18804;SDS011;9530;48.930;9.526;2023-01-28T00:35:40;10.13;;;6.93;;
18804;SDS011;9530;48.930;9.526;2023-01-28T00:38:06;9.73;;;6.60;;
18804;SDS011;9530;48.930;9.526;2023-01-28T00:40:33;9.47;;;6.83;;
18804;SDS011;9530;48.930;9.526;2023-01-28T00:43:00;9.80;;;6.80;;
18804;SDS011;9530;48.930;9.526;2023-01-28T00:45:27;10.23;;;6.70;;
18804;SDS011;9530;48.930;9.526;2023-01-28T00:47:54;9.37;;;6.77;;
18804;SDS011;9530;48.930;9.526;2023-01-28T00:50:22;11.10;;;6.73;;
18804;SDS011;9530;48.930;9.526;2023-01-28T00:52:48;8.27;;;6.30;;
18804;SDS011;9530;48.930;9.526;2023-01-28T00:55:15;10.33;;;7.17;;
18804;SDS011;9530;48.930;9.526;2023-01-28T00:57:42;8.47;;;6.27;;
18804;SDS011;9530;48.930;9.526;2023-01-28T01:00:09;9.73;;;7.00;;
18804;SDS011;9530;48.930;9.526;2023-01-28T01:02:36;8.90;;;6.80;;
18804;SDS011;9530;48.930;9.526;2023-01-28T01:05:03;9.77;;;6.60;;
18804;SDS011;9530;48.930;9.526;2023-01-28T01:07:32;9.83;;;6.80;;
18804;SDS011;9530;48.930;9.526;2023-01-28T01:10:06;9.47;;;6.20;;
18804;SDS011;9530;48.930;9.526;2023-01-28T01:12:33;9.67;;;6.63;;
18804;SDS011;9530;48.930;9.526;2023-01-28T01:15:00;8.93;;;6.00;;
18804;SDS011;9530;48.930;9.526;2023-01-28T01:17:28;8.27;;;5.93;;
18804;SDS011;9530;48.930;9.526;2023-01-28T01:19:55;10.17;;;6.37;;
18804;SDS011;9530;48.930;9.526;2023-01-28T01:22:22;7.83;;;6.03;;
18804;SDS011;9530;48.930;9.526;2023-01-28T01:24:50;8.57;;;6.17;;
18804;SDS011;9530;48.930;9.526;2023-01-28T01:27:17;8.43;;;6.00;;
18804;SDS011;9530;48.930;9.526;2023-01-28T01:29:43;8.97;;;6.60;;
18804;SDS011;9530;48.930;9.526;2023-01-28T01:32:10;8.13;;;5.73;;
18804;SDS011;9530;48.930;9.526;2023-01-28T01:34:37;7.50;;;5.77;;
18804;SDS011;9530;48.930;9.526;2023-01-28T01:37:03;8.23;;;5.87;;
18804;SDS011;9530;48.930;9.526;2023-01-28T01:39:32;8.43;;;6.13;;
18804;SDS011;9530;48.930;9.526;2023-01-28T01:42:00;7.67;;;6.07;;
18804;SDS011;9530;48.930;9.526;2023-01-28T01:44:46;8.77;;;5.90;;
18804;SDS011;9530;48.930;9.526;2023-01-28T01:47:20;8.97;;;5.87;;
18804;SDS011;9530;48.930;9.526;2023-01-28T01:49:49;7.90;;;5.77;;
18804;SDS011;9530;48.930;9.526;2023-01-28T01:52:17;8.07;;;6.00;;
18804;SDS011;9530;48.930;9.526;2023-01-28T01:54:47;8.53;;;6.00;;
18804;SDS011;9530;48.930;9.526;2023-01-28T01:57:20;9.53;;;6.30;;
18804;SDS011;9530;48.930;9.526;2023-01-28T01:59:50;7.90;;;5.97;;
18804;SDS011;9530;48.930;9.526;2023-01-28T02:02:17;9.10;;;6.43;;
18804;SDS011;9530;48.930;9.526;2023-01-28T02:04:44;8.13;;;5.60;;
18804;SDS011;9530;48.930;9.526;2023-01-28T02:07:11;7.97;;;5.83;;
18804;SDS011;9530;48.930;9.526;2023-01-28T02:09:40;8.10;;;6.10;;
18804;SDS011;9530;48.930;9.526;2023-01-28T02:12:07;8.03;;;6.50;;
18804;SDS011;9530;48.930;9.526;2023-01-28T02:14:40;7.00;;;5.33;;
18804;SDS011;9530;48.930;9.526;2023-01-28T02:17:08;7.97;;;6.23;;
18804;SDS011;9530;48.930;9.526;2023-01-28T02:19:35;9.13;;;6.60;;
18804;SDS011;9530;48.930;9.526;2023-01-28T02:22:18;8.40;;;6.57;;
18804;SDS011;9530;48.930;9.526;2023-01-28T02:25:00;8.90;;;5.97;;
18804;SDS011;9530;48.930;9.526;2023-01-28T02:27:58;8.13;;;5.77;;
18804;SDS011;9530;48.930;9.526;2023-01-28T02:30:38;7.93;;;5.63;;
18804;SDS011;9530;48.930;9.526;2023-01-28T02:33:08;7.27;;;5.77;;
18804;SDS011;9530;48.930;9.526;2023-01-28T02:35:44;7.47;;;5.73;;
18804;SDS011;9530;48.930;9.526;2023-01-28T02:38:15;7.07;;;5.70;;
18804;SDS011;9530;48.930;9.526;2023-01-28T02:40:47;8.17;;;6.23;;
18804;SDS011;9530;48.930;9.526;2023-01-28T02:43:35;8.00;;;5.60;;
18804;SDS011;9530;48.930;9.526;2023-01-28T02:46:09;7.80;;;5.97;;
18804;SDS011;9530;48.930;9.526;2023-01-28T02:48:58;8.77;;;6.30;;
18804;SDS011;9530;48.930;9.526;2023-01-28T02:51:26;8.97;;;6.50;;
18804;SDS011;9530;48.930;9.526;2023-01-28T02:54:01;8.30;;;6.20;;
18804;SDS011;9530;48.930;9.526;2023-01-28T02:56:34;8.77;;;6.10;;
18804;SDS011;9530;48.930;9.526;2023-01-28T02:59:08;9.07;;;6.67;;
18804;SDS011;9530;48.930;9.526;2023-01-28T03:01:59;10.43;;;6.60;;
18804;SDS011;9530;48.930;9.526;2023-01-28T03:04:32;9.40;;;6.30;;
18804;SDS011;9530;48.930;9.526;2023-01-28T03:07:04;8.70;;;6.57;;
18804;SDS011;9530;48.930;9.526;2023-01-28T03:09:34;8.97;;;6.70;;
18804;SDS011;9530;48.930;9.526;2023-01-28T03:12:02;9.20;;;6.90;;
18804;SDS011;9530;48.930;9.526;2023-01-28T03:14:52;9.63;;;6.80;;
18804;SDS011;9530;48.930;9.526;2023-01-28T03:17:40;11.20;;;7.33;;
18804;SDS011;9530;48.930;9.526;2023-01-28T03:20:28;9.30;;;7.20;;
18804;SDS011;9530;48.930;9.526;2023-01-28T03:23:19;9.47;;;6.73;;
18804;SDS011;9530;48.930;9.526;2023-01-28T03:26:09;10.70;;;7.80;;
18804;SDS011;9530;48.930;9.526;2023-01-28T03:28:56;11.10;;;7.60;;
18804;SDS011;9530;48.930;9.526;2023-01-28T03:31:48;9.57;;;6.93;;
18804;SDS011;9530;48.930;9.526;2023-01-28T03:34:32;9.20;;;7.10;;
18804;SDS011;9530;48.930;9.526;2023-01-28T03:37:16;9.63;;;7.13;;
18804;SDS011;9530;48.930;9.526;2023-01-28T03:39:43;9.50;;;6.90;;
18804;SDS011;9530;48.930;9.526;2023-01-28T03:42:10;9.00;;;6.90;;
18804;SDS011;9530;48.930;9.526;2023-01-28T03:44:39;8.60;;;7.13;;
18804;SDS011;9530;48.930;9.526;2023-01-28T03:47:17;8.80;;;6.50;;
18804;SDS011;9530;48.930;9.526;2023-01-28T03:49:45;9.03;;;6.83;;
18804;SDS011;9530;48.930;9.526;2023-01-28T03:52:14;10.47;;;7.00;;
18804;SDS011;9530;48.930;9.526;2023-01-28T03:54:42;10.10;;;6.93;;
18804;SDS011;9530;48.930;9.526;2023-01-28T03:57:11;9.53;;;6.60;;
18804;SDS011;9530;48.930;9.526;2023-01-28T03:59:38;7.93;;;6.47;;
18804;SDS011;9530;48.930;9.526;2023-01-28T04:02:05;9.03;;;7.10;;
18804;SDS011;9530;48.930;9.526;2023-01-28T04:04:34;10.10;;;6.80;;
18804;SDS011;9530;48.930;9.526;2023-01-28T04:07:00;9.40;;;7.47;;
18804;SDS011;9530;48.930;9.526;2023-01-28T04:09:27;9.70;;;7.87;;
18804;SDS011;9530;48.930;9.526;2023-01-28T04:11:53;10.97;;;7.90;;
18804;SDS011;9530;48.930;9.526;2023-01-28T04:14:20;12.00;;;7.87;;
18804;SDS011;9530;48.930;9.526;2023-01-28T04:16:47;10.10;;;7.90;;
18804;SDS011;9530;48.930;9.526;2023-01-28T04:19:14;10.03;;;7.63;;
18804;SDS011;9530;48.930;9.526;2023-01-28T04:21:42;10.90;;;7.90;;
18804;SDS011;9530;48.930;9.526;2023-01-28T04:24:08;10.73;;;7.13;;
18804;SDS011;9530;48.930;9.526;2023-01-28T04:26:35;12.13;;;7.53;;
18804;SDS011;9530;48.930;9.526;2023-01-28T04:29:02;9.63;;;7.30;;
18804;SDS011;9530;48.930;9.526;2023-01-28T04:31:29;10.30;;;7.97;;
18804;SDS011;9530;48.930;9.526;2023-01-28T04:33:56;12.03;;;8.50;;
18804;SDS011;9530;48.930;9.526;2023-01-28T04:36:23;10.80;;;7.87;;
18804;SDS011;9530;48.930;9.526;2023-01-28T04:38:51;10.80;;;8.43;;
18804;SDS011;9530;48.930;9.526;2023-01-28T04:41:18;11.63;;;8.37;;
18804;SDS011;9530;48.930;9.526;2023-01-28T04:43:45;11.13;;;8.23;;
18804;SDS011;9530;48.930;9.526;2023-01-28T04:46:13;11.33;;;8.37;;
18804;SDS011;9530;48.930;9.526;2023-01-28T04:48:40;11.10;;;8.27;;
18804;SDS011;9530;48.930;9.526;2023-01-28T04:51:06;12.53;;;8.43;;
18804;SDS011;9530;48.930;9.526;2023-01-28T04:53:33;10.80;;;8.17;;
18804;SDS011;9530;48.930;9.526;2023-01-28T04:56:01;11.67;;;8.30;;
18804;SDS011;9530;48.930;9.526;2023-01-28T04:58:28;15.63;;;8.87;;
18804;SDS011;9530;48.930;9.526;2023-01-28T05:00:55;12.70;;;8.37;;
18804;SDS011;9530;48.930;9.526;2023-01-28T05:03:23;11.67;;;8.47;;
18804;SDS011;9530;48.930;9.526;2023-01-28T05:05:50;13.13;;;8.40;;
18804;SDS011;9530;48.930;9.526;2023-01-28T05:08:17;10.80;;;8.30;;
18804;SDS011;9530;48.930;9.526;2023-01-28T05:10:43;10.87;;;8.33;;
18804;SDS011;9530;48.930;9.526;2023-01-28T05:13:12;11.17;;;8.67;;
18804;SDS011;9530;48.930;9.526;2023-01-28T05:15:38;12.83;;;9.00;;
18804;SDS011;9530;48.930;9.526;2023-01-28T05:18:05;10.80;;;8.77;;
18804;SDS011;9530;48.930;9.526;2023-01-28T05:20:32;11.70;;;8.53;;
18804;SDS011;9530;48.930;9.526;2023-01-28T05:22:58;10.90;;;8.10;;
18804;SDS011;9530;48.930;9.526;2023-01-28T05:25:25;10.83;;;8.13;;
18804;SDS011;9530;48.930;9.526;2023-01-28T05:27:52;11.97;;;8.80;;
18804;SDS011;9530;48.930;9.526;2023-01-28T05:30:20;12.63;;;9.00;;
18804;SDS011;9530;48.930;9.526;2023-01-28T05:32:47;11.63;;;8.70;;
18804;SDS011;9530;48.930;9.526;2023-01-28T05:35:14;14.83;;;10.53;;
18804;SDS011;9530;48.930;9.526;2023-01-28T05:37:41;15.73;;;10.03;;
18804;SDS011;9530;48.930;9.526;2023-01-28T05:40:08;12.00;;;9.13;;
18804;SDS011;9530;48.930;9.526;2023-01-28T05:42:36;11.67;;;8.60;;
18804;SDS011;9530;48.930;9.526;2023-01-28T05:45:03;12.70;;;9.10;;
18804;SDS011;9530;48.930;9.526;2023-01-28T05:47:31;16.23;;;9.70;;
18804;SDS011;9530;48.930;9.526;2023-01-28T05:49:58;13.13;;;9.73;;
18804;SDS011;9530;48.930;9.526;2023-01-28T05:52:25;13.63;;;9.20;;
18804;SDS011;9530;48.930;9.526;2023-01-28T05:54:52;14.63;;;9.00;;
18804;SDS011;9530;48.930;9.526;2023-01-28T05:57:18;12.13;;;8.50;;
18804;SDS011;9530;48.930;9.526;2023-01-28T05:59:45;13.23;;;8.83;;
18804;SDS011;9530;48.930;9.526;2023-01-28T06:02:11;13.10;;;9.03;;
18804;SDS011;9530;48.930;9.526;2023-01-28T06:04:39;12.43;;;8.67;;
18804;SDS011;9530;48.930;9.526;2023-01-28T06:07:06;14.70;;;8.90;;
18804;SDS011;9530;48.930;9.526;2023-01-28T06:09:33;12.33;;;9.70;;
18804;SDS011;9530;48.930;9.526;2023-01-28T06:11:59;12.73;;;9.63;;
18804;SDS011;9530;48.930;9.526;2023-01-28T06:14:26;13.47;;;8.57;;
18804;SDS011;9530;48.930;9.526;2023-01-28T06:16:53;14.77;;;8.80;;
18804;SDS011;9530;48.930;9.526;2023-01-28T06:19:19;12.97;;;9.13;;
18804;SDS011;9530;48.930;9.526;2023-01-28T06:21:47;14.40;;;9.63;;
18804;SDS011;9530;48.930;9.526;2023-01-28T06:24:14;13.93;;;9.47;;
18804;SDS011;9530;48.930;9.526;2023-01-28T06:26:40;11.70;;;9.60;;
18804;SDS011;9530;48.930;9.526;2023-01-28T06:29:07;11.20;;;8.63;;
18804;SDS011;9530;48.930;9.526;2023-01-28T06:31:34;12.87;;;8.80;;
18804;SDS011;9530;48.930;9.526;2023-01-28T06:34:01;10.93;;;8.83;;
18804;SDS011;9530;48.930;9.526;2023-01-28T06:36:28;12.73;;;9.27;;
18804;SDS011;9530;48.930;9.526;2023-01-28T06:38:56;15.20;;;8.97;;
18804;SDS011;9530;48.930;9.526;2023-01-28T06:41:23;10.93;;;8.20;;
18804;SDS011;9530;48.930;9.526;2023-01-28T06:43:50;12.03;;;7.97;;
18804;SDS011;9530;48.930;9.526;2023-01-28T06:46:16;12.23;;;8.33;;
18804;SDS011;9530;48.930;9.526;2023-01-28T06:48:43;13.30;;;8.90;;
18804;SDS011;9530;48.930;9.526;2023-01-28T06:51:10;12.60;;;8.93;;
18804;SDS011;9530;48.930;9.526;2023-01-28T06:53:36;11.83;;;8.50;;
18804;SDS011;9530;48.930;9.526;2023-01-28T06:56:05;10.87;;;8.07;;
18804;SDS011;9530;48.930;9.526;2023-01-28T06:58:32;12.00;;;8.60;;
18804;SDS011;9530;48.930;9.526;2023-01-28T07:00:59;11.67;;;8.47;;
18804;SDS011;9530;48.930;9.526;2023-01-28T07:03:26;13.67;;;8.70;;
18804;SDS011;9530;48.930;9.526;2023-01-28T07:05:52;12.10;;;9.13;;
18804;SDS011;9530;48.930;9.526;2023-01-28T07:08:19;12.67;;;8.63;;
18804;SDS011;9530;48.930;9.526;2023-01-28T07:10:46;12.30;;;9.10;;
18804;SDS011;9530;48.930;9.526;2023-01-28T07:13:15;12.37;;;8.60;;
18804;SDS011;9530;48.930;9.526;2023-01-28T07:15:41;11.90;;;9.13;;
18804;SDS011;9530;48.930;9.526;2023-01-28T07:18:08;12.23;;;9.43;;
18804;SDS011;9530;48.930;9.526;2023-01-28T07:20:34;12.23;;;9.43;;
18804;SDS011;9530;48.930;9.526;2023-01-28T07:23:01;10.53;;;8.70;;
18804;SDS011;9530;48.930;9.526;2023-01-28T07:25:28;11.93;;;9.27;;
18804;SDS011;9530;48.930;9.526;2023-01-28T07:27:55;13.73;;;8.97;;
18804;SDS011;9530;48.930;9.526;2023-01-28T07:30:23;12.17;;;8.77;;
18804;SDS011;9530;48.930;9.526;2023-01-28T07:32:51;11.97;;;8.90;;
18804;SDS011;9530;48.930;9.526;2023-01-28T07:35:19;12.87;;;9.00;;
18804;SDS011;9530;48.930;9.526;2023-01-28T07:37:49;12.03;;;9.00;;
18804;SDS011;9530;48.930;9.526;2023-01-28T07:40:16;12.20;;;9.40;;
18804;SDS011;9530;48.930;9.526;2023-01-28T07:42:43;12.70;;;9.77;;
18804;SDS011;9530;48.930;9.526;2023-01-28T07:45:10;13.53;;;9.30;;
18804;SDS011;9530;48.930;9.526;2023-01-28T07:47:38;13.33;;;9.67;;
18804;SDS011;9530;48.930;9.526;2023-01-28T07:50:05;17.53;;;11.67;;
18804;SDS011;9530;48.930;9.526;2023-01-28T07:52:32;14.57;;;10.70;;
18804;SDS011;9530;48.930;9.526;2023-01-28T07:55:08;15.77;;;11.30;;
18804;SDS011;9530;48.930;9.526;2023-01-28T07:57:36;13.27;;;10.10;;
18804;SDS011;9530;48.930;9.526;2023-01-28T08:00:03;15.23;;;9.90;;
18804;SDS011;9530;48.930;9.526;2023-01-28T08:02:30;11.77;;;9.63;;
18804;SDS011;9530;48.930;9.526;2023-01-28T08:04:58;11.67;;;9.60;;
18804;SDS011;9530;48.930;9.526;2023-01-28T08:07:26;13.07;;;9.20;;
18804;SDS011;9530;48.930;9.526;2023-01-28T08:09:53;11.63;;;8.90;;
18804;SDS011;9530;48.930;9.526;2023-01-28T08:12:20;12.90;;;10.03;;
18804;SDS011;9530;48.930;9.526;2023-01-28T08:14:46;14.10;;;10.00;;
18804;SDS011;9530;48.930;9.526;2023-01-28T08:17:13;11.37;;;9.23;;
18804;SDS011;9530;48.930;9.526;2023-01-28T08:19:39;12.53;;;9.93;;
18804;SDS011;9530;48.930;9.526;2023-01-28T08:22:07;14.50;;;10.90;;
18804;SDS011;9530;48.930;9.526;2023-01-28T08:24:34;15.83;;;11.70;;
18804;SDS011;9530;48.930;9.526;2023-01-28T08:27:01;14.73;;;10.63;;
18804;SDS011;9530;48.930;9.526;2023-01-28T08:29:28;15.63;;;11.00;;
18804;SDS011;9530;48.930;9.526;2023-01-28T08:31:54;15.83;;;10.83;;
18804;SDS011;9530;48.930;9.526;2023-01-28T08:34:21;14.63;;;11.90;;
18804;SDS011;9530;48.930;9.526;2023-01-28T08:36:48;16.57;;;10.93;;
18804;SDS011;9530;48.930;9.526;2023-01-28T08:39:16;14.73;;;10.67;;
18804;SDS011;9530;48.930;9.526;2023-01-28T08:41:42;15.37;;;11.20;;
18804;SDS011;9530;48.930;9.526;2023-01-28T08:44:09;15.07;;;11.10;;
18804;SDS011;9530;48.930;9.526;2023-01-28T08:46:36;20.87;;;14.50;;
18804;SDS011;9530;48.930;9.526;2023-01-28T08:49:02;14.30;;;10.43;;
18804;SDS011;9530;48.930;9.526;2023-01-28T08:51:29;16.03;;;11.50;;
18804;SDS011;9530;48.930;9.526;2023-01-28T08:53:56;14.20;;;10.80;;
18804;SDS011;9530;48.930;9.526;2023-01-28T08:56:24;13.77;;;10.60;;
18804;SDS011;9530;48.930;9.526;2023-01-28T08:58:51;13.20;;;9.80;;
18804;SDS011;9530;48.930;9.526;2023-01-28T09:01:17;15.10;;;10.90;;
18804;SDS011;9530;48.930;9.526;2023-01-28T09:03:44;15.53;;;10.47;;
18804;SDS011;9530;48.930;9.526;2023-01-28T09:06:11;14.53;;;10.33;;
18804;SDS011;9530;48.930;9.526;2023-01-28T09:08:37;15.90;;;10.83;;
18804;SDS011;9530;48.930;9.526;2023-01-28T09:11:04;14.87;;;10.67;;
18804;SDS011;9530;48.930;9.526;2023-01-28T09:13:32;16.73;;;10.50;;
18804;SDS011;9530;48.930;9.526;2023-01-28T09:15:58;15.67;;;10.67;;
18804;SDS011;9530;48.930;9.526;2023-01-28T09:18:25;16.20;;;11.00;;
18804;SDS011;9530;48.930;9.526;2023-01-28T09:20:52;16.37;;;11.13;;
18804;SDS011;9530;48.930;9.526;2023-01-28T09:23:18;15.20;;;10.67;;
18804;SDS011;9530;48.930;9.526;2023-01-28T09:25:45;16.63;;;10.97;;
18804;SDS011;9530;48.930;9.526;2023-01-28T09:28:12;15.40;;;10.97;;
18804;SDS011;9530;48.930;9.526;2023-01-28T09:30:40;14.90;;;10.87;;
18804;SDS011;9530;48.930;9.526;2023-01-28T09:33:07;16.50;;;10.70;;
18804;SDS011;9530;48.930;9.526;2023-01-28T09:35:33;16.57;;;11.80;;
18804;SDS011;9530;48.930;9.526;2023-01-28T09:38:00;17.43;;;11.43;;
18804;SDS011;9530;48.930;9.526;2023-01-28T09:40:29;15.57;;;10.80;;
18804;SDS011;9530;48.930;9.526;2023-01-28T09:45:51;16.40;;;11.33;;
18804;SDS011;9530;48.930;9.526;2023-01-28T09:48:21;15.33;;;10.70;;
18804;SDS011;9530;48.930;9.526;2023-01-28T09:50:54;14.53;;;11.03;;
18804;SDS011;9530;48.930;9.526;2023-01-28T09:53:22;15.27;;;10.67;;
18804;SDS011;9530;48.930;9.526;2023-01-28T09:55:52;14.30;;;10.87;;
18804;SDS011;9530;48.930;9.526;2023-01-28T09:58:21;16.13;;;10.53;;
18804;SDS011;9530;48.930;9.526;2023-01-28T10:00:51;14.67;;;10.23;;
18804;SDS011;9530;48.930;9.526;2023-01-28T10:03:27;16.07;;;10.60;;
18804;SDS011;9530;48.930;9.526;2023-01-28T10:06:08;15.73;;;11.23;;
18804;SDS011;9530;48.930;9.526;2023-01-28T10:08:51;15.20;;;10.50;;
18804;SDS011;9530;48.930;9.526;2023-01-28T10:11:36;16.07;;;10.87;;
18804;SDS011;9530;48.930;9.526;2023-01-28T10:14:15;15.87;;;10.40;;
18804;SDS011;9530;48.930;9.526;2023-01-28T10:16:54;14.27;;;10.20;;
18804;SDS011;9530;48.930;9.526;2023-01-28T10:19:25;16.33;;;10.93;;
18804;SDS011;9530;48.930;9.526;2023-01-28T10:21:56;14.50;;;10.30;;
18804;SDS011;9530;48.930;9.526;2023-01-28T10:24:28;13.83;;;10.27;;
18804;SDS011;9530;48.930;9.526;2023-01-28T10:26:59;15.47;;;10.97;;
18804;SDS011;9530;48.930;9.526;2023-01-28T10:29:28;15.17;;;10.63;;
18804;SDS011;9530;48.930;9.526;2023-01-28T10:31:58;14.70;;;10.33;;
18804;SDS011;9530;48.930;9.526;2023-01-28T10:34:29;13.47;;;9.40;;
18804;SDS011;9530;48.930;9.526;2023-01-28T10:36:56;14.47;;;10.37;;
18804;SDS011;9530;48.930;9.526;2023-01-28T10:39:24;15.77;;;11.50;;
18804;SDS011;9530;48.930;9.526;2023-01-28T10:41:51;13.60;;;10.00;;
18804;SDS011;9530;48.930;9.526;2023-01-28T10:44:19;14.97;;;10.50;;
18804;SDS011;9530;48.930;9.526;2023-01-28T10:46:52;14.77;;;10.20;;
18804;SDS011;9530;48.930;9.526;2023-01-28T10:49:23;15.80;;;11.23;;
18804;SDS011;9530;48.930;9.526;2023-01-28T10:51:53;16.43;;;11.10;;
18804;SDS011;9530;48.930;9.526;2023-01-28T10:54:20;15.17;;;10.43;;
18804;SDS011;9530;48.930;9.526;2023-01-28T10:56:49;15.27;;;11.10;;
18804;SDS011;9530;48.930;9.526;2023-01-28T10:59:19;16.60;;;11.33;;
18804;SDS011;9530;48.930;9.526;2023-01-28T11:01:49;16.70;;;11.57;;
18804;SDS011;9530;48.930;9.526;2023-01-28T11:04:18;16.40;;;12.00;;
18804;SDS011;9530;48.930;9.526;2023-01-28T11:06:54;15.37;;;11.23;;
18804;SDS011;9530;48.930;9.526;2023-01-28T11:09:24;15.93;;;11.40;;
18804;SDS011;9530;48.930;9.526;2023-01-28T11:11:52;14.53;;;10.77;;
18804;SDS011;9530;48.930;9.526;2023-01-28T11:14:19;16.57;;;11.90;;
18804;SDS011;9530;48.930;9.526;2023-01-28T11:16:47;19.03;;;12.63;;
18804;SDS011;9530;48.930;9.526;2023-01-28T11:19:15;15.40;;;11.50;;
18804;SDS011;9530;48.930;9.526;2023-01-28T11:21:47;19.13;;;12.10;;
18804;SDS011;9530;48.930;9.526;2023-01-28T11:24:17;17.47;;;11.63;;
18804;SDS011;9530;48.930;9.526;2023-01-28T11:26:48;17.67;;;11.93;;
18804;SDS011;9530;48.930;9.526;2023-01-28T11:29:20;15.13;;;11.57;;
18804;SDS011;9530;48.930;9.526;2023-01-28T11:31:49;15.90;;;10.73;;
18804;SDS011;9530;48.930;9.526;2023-01-28T11:34:17;17.50;;;11.93;;
18804;SDS011;9530;48.930;9.526;2023-01-28T11:36:51;18.73;;;12.10;;
18804;SDS011;9530;48.930;9.526;2023-01-28T11:39:20;19.13;;;12.33;;
18804;SDS011;9530;48.930;9.526;2023-01-28T11:41:50;17.33;;;11.70;;
18804;SDS011;9530;48.930;9.526;2023-01-28T11:44:18;18.77;;;12.13;;
18804;SDS011;9530;48.930;9.526;2023-01-28T11:46:50;20.40;;;12.10;;
18804;SDS011;9530;48.930;9.526;2023-01-28T11:49:30;18.83;;;11.33;;
18804;SDS011;9530;48.930;9.526;2023-01-28T11:52:12;19.90;;;13.47;;
18804;SDS011;9530;48.930;9.526;2023-01-28T11:54:52;23.73;;;16.87;;
18804;SDS011;9530;48.930;9.526;2023-01-28T11:57:30;16.83;;;11.80;;
18804;SDS011;9530;48.930;9.526;2023-01-28T12:03:12;17.60;;;11.60;;
18804;SDS011;9530;48.930;9.526;2023-01-28T12:05:55;18.37;;;11.73;;
18804;SDS011;9530;48.930;9.526;2023-01-28T12:08:37;15.53;;;11.40;;
18804;SDS011;9530;48.930;9.526;2023-01-28T12:11:15;15.57;;;11.43;;
18804;SDS011;9530;48.930;9.526;2023-01-28T12:14:12;12.50;;;8.60;;
18804;SDS011;9530;48.930;9.526;2023-01-28T12:16:50;13.43;;;9.40;;
18804;SDS011;9530;48.930;9.526;2023-01-28T12:19:32;10.50;;;7.20;;
18804;SDS011;9530;48.930;9.526;2023-01-28T12:25:14;9.63;;;6.90;;
18804;SDS011;9530;48.930;9.526;2023-01-28T12:27:51;10.37;;;7.47;;
18804;SDS011;9530;48.930;9.526;2023-01-28T12:30:29;9.63;;;6.60;;
18804;SDS011;9530;48.930;9.526;2023-01-28T12:33:11;8.83;;;6.27;;
18804;SDS011;9530;48.930;9.526;2023-01-28T12:35:56;10.47;;;6.37;;
18804;SDS011;9530;48.930;9.526;2023-01-28T12:38:33;9.17;;;6.97;;
18804;SDS011;9530;48.930;9.526;2023-01-28T12:41:07;9.67;;;7.03;;
18804;SDS011;9530;48.930;9.526;2023-01-28T12:43:41;9.53;;;7.33;;
18804;SDS011;9530;48.930;9.526;2023-01-28T12:46:22;12.27;;;7.47;;
18804;SDS011;9530;48.930;9.526;2023-01-28T12:48:56;10.93;;;7.30;;
18804;SDS011;9530;48.930;9.526;2023-01-28T12:51:29;11.33;;;7.17;;
18804;SDS011;9530;48.930;9.526;2023-01-28T12:54:01;11.27;;;7.63;;
18804;SDS011;9530;48.930;9.526;2023-01-28T12:56:36;9.93;;;6.93;;
18804;SDS011;9530;48.930;9.526;2023-01-28T12:59:09;12.83;;;7.03;;
18804;SDS011;9530;48.930;9.526;2023-01-28T13:01:39;11.17;;;7.03;;
18804;SDS011;9530;48.930;9.526;2023-01-28T13:04:09;11.27;;;6.90;;
18804;SDS011;9530;48.930;9.526;2023-01-28T13:06:46;10.33;;;7.50;;
18804;SDS011;9530;48.930;9.526;2023-01-28T13:09:17;10.23;;;6.90;;
18804;SDS011;9530;48.930;9.526;2023-01-28T13:11:46;10.70;;;7.83;;
18804;SDS011;9530;48.930;9.526;2023-01-28T13:14:16;11.33;;;8.33;;
18804;SDS011;9530;48.930;9.526;2023-01-28T13:16:46;12.97;;;9.77;;
18804;SDS011;9530;48.930;9.526;2023-01-28T13:19:21;15.43;;;11.10;;
18804;SDS011;9530;48.930;9.526;2023-01-28T13:21:49;10.07;;;7.50;;
18804;SDS011;9530;48.930;9.526;2023-01-28T13:24:30;9.13;;;6.80;;
18804;SDS011;9530;48.930;9.526;2023-01-28T13:26:57;9.37;;;7.07;;
18804;SDS011;9530;48.930;9.526;2023-01-28T13:29:38;11.33;;;6.77;;
18804;SDS011;9530;48.930;9.526;2023-01-28T13:34:56;8.53;;;6.07;;
18804;SDS011;9530;48.930;9.526;2023-01-28T13:37:26;9.13;;;6.77;;
18804;SDS011;9530;48.930;9.526;2023-01-28T13:39:57;9.33;;;6.20;;
18804;SDS011;9530;48.930;9.526;2023-01-28T13:42:29;8.23;;;6.10;;
18804;SDS011;9530;48.930;9.526;2023-01-28T13:45:07;7.63;;;6.00;;
18804;SDS011;9530;48.930;9.526;2023-01-28T13:47:50;8.37;;;5.80;;
18804;SDS011;9530;48.930;9.526;2023-01-28T13:50:20;8.17;;;6.10;;
18804;SDS011;9530;48.930;9.526;2023-01-28T13:52:51;8.23;;;6.23;;
18804;SDS011;9530;48.930;9.526;2023-01-28T13:55:22;8.90;;;6.67;;
18804;SDS011;9530;48.930;9.526;2023-01-28T13:58:11;8.87;;;5.27;;
18804;SDS011;9530;48.930;9.526;2023-01-28T14:01:14;8.60;;;5.73;;
18804;SDS011;9530;48.930;9.526;2023-01-28T14:04:10;6.83;;;5.53;;
18804;SDS011;9530;48.930;9.526;2023-01-28T14:10:13;6.93;;;5.63;;
18804;SDS011;9530;48.930;9.526;2023-01-28T14:13:04;6.10;;;4.73;;
18804;SDS011;9530;48.930;9.526;2023-01-28T14:15:56;6.30;;;5.20;;
18804;SDS011;9530;48.930;9.526;2023-01-28T14:18:37;6.63;;;5.27;;
18804;SDS011;9530;48.930;9.526;2023-01-28T14:21:08;7.43;;;5.90;;
18804;SDS011;9530;48.930;9.526;2023-01-28T14:23:37;7.47;;;5.33;;
18804;SDS011;9530;48.930;9.526;2023-01-28T14:26:15;6.40;;;5.27;;
18804;SDS011;9530;48.930;9.526;2023-01-28T14:28:59;8.10;;;6.40;;
18804;SDS011;9530;48.930;9.526;2023-01-28T14:31:34;7.27;;;5.90;;
18804;SDS011;9530;48.930;9.526;2023-01-28T14:34:05;7.33;;;5.43;;
18804;SDS011;9530;48.930;9.526;2023-01-28T14:36:38;6.80;;;5.47;;
18804;SDS011;9530;48.930;9.526;2023-01-28T14:39:10;6.57;;;5.30;;
18804;SDS011;9530;48.930;9.526;2023-01-28T14:41:42;8.00;;;5.57;;
18804;SDS011;9530;48.930;9.526;2023-01-28T14:44:12;8.57;;;6.07;;
18804;SDS011;9530;48.930;9.526;2023-01-28T14:46:54;9.77;;;6.30;;
18804;SDS011;9530;48.930;9.526;2023-01-28T14:49:34;7.87;;;5.57;;
18804;SDS011;9530;48.930;9.526;2023-01-28T14:52:13;8.47;;;6.17;;
18804;SDS011;9530;48.930;9.526;2023-01-28T14:54:57;9.50;;;6.10;;
18804;SDS011;9530;48.930;9.526;2023-01-28T14:57:35;10.93;;;6.33;;
18804;SDS011;9530;48.930;9.526;2023-01-28T15:00:19;8.23;;;6.30;;
18804;SDS011;9530;48.930;9.526;2023-01-28T15:02:47;8.17;;;5.63;;
18804;SDS011;9530;48.930;9.526;2023-01-28T15:05:16;7.57;;;5.80;;
18804;SDS011;9530;48.930;9.526;2023-01-28T15:07:44;7.50;;;5.07;;
18804;SDS011;9530;48.930;9.526;2023-01-28T15:10:16;7.67;;;5.30;;
18804;SDS011;9530;48.930;9.526;2023-01-28T15:12:45;7.47;;;5.53;;
18804;SDS011;9530;48.930;9.526;2023-01-28T15:15:17;7.70;;;5.60;;
18804;SDS011;9530;48.930;9.526;2023-01-28T15:17:49;7.37;;;5.70;;
18804;SDS011;9530;48.930;9.526;2023-01-28T15:20:18;6.53;;;5.20;;
18804;SDS011;9530;48.930;9.526;2023-01-28T15:22:46;7.87;;;5.40;;
18804;SDS011;9530;48.930;9.526;2023-01-28T15:25:16;8.03;;;5.33;;